sensor_id;sensor_type;location;lat;lon;timestamp;P1;durP1;ratioP1;P2;durP2;ratioP2
28760;SDS011;15917;50.014;8.352;2024-03-02T00:01:56;12.90;;;6.82;;
28760;SDS011;15917;50.014;8.352;2024-03-02T00:04:22;16.40;;;6.88;;
28760;SDS011;15917;50.014;8.352;2024-03-02T00:06:47;13.60;;;6.88;;
28760;SDS011;15917;50.014;8.352;2024-03-02T00:09:16;14.98;;;7.22;;
28760;SDS011;15917;50.014;8.352;2024-03-02T00:11:41;10.23;;;6.03;;
28760;SDS011;15917;50.014;8.352;2024-03-02T00:14:07;12.85;;;6.57;;
28760;SDS011;15917;50.014;8.352;2024-03-02T00:16:33;10.75;;;6.68;;
28760;SDS011;15917;50.014;8.352;2024-03-02T00:19:02;13.13;;;6.82;;
28760;SDS011;15917;50.014;8.352;2024-03-02T00:21:30;13.38;;;6.47;;
28760;SDS011;15917;50.014;8.352;2024-03-02T00:23:56;14.00;;;7.80;;
28760;SDS011;15917;50.014;8.352;2024-03-02T00:26:22;12.77;;;6.38;;
28760;SDS011;15917;50.014;8.352;2024-03-02T00:28:47;14.55;;;7.70;;
28760;SDS011;15917;50.014;8.352;2024-03-02T00:31:15;15.90;;;7.63;;
28760;SDS011;15917;50.014;8.352;2024-03-02T00:33:45;14.27;;;7.65;;
28760;SDS011;15917;50.014;8.352;2024-03-02T00:36:24;14.07;;;6.70;;
28760;SDS011;15917;50.014;8.352;2024-03-02T00:38:52;13.35;;;6.47;;
28760;SDS011;15917;50.014;8.352;2024-03-02T00:43:56;10.57;;;6.10;;
28760;SDS011;15917;50.014;8.352;2024-03-02T00:46:30;11.63;;;6.18;;
28760;SDS011;15917;50.014;8.352;2024-03-02T00:49:03;12.68;;;6.82;;
28760;SDS011;15917;50.014;8.352;2024-03-02T00:51:30;16.75;;;6.63;;
28760;SDS011;15917;50.014;8.352;2024-03-02T00:54:01;16.50;;;7.65;;
28760;SDS011;15917;50.014;8.352;2024-03-02T00:56:29;20.13;;;7.85;;
28760;SDS011;15917;50.014;8.352;2024-03-02T00:58:56;21.83;;;8.93;;
28760;SDS011;15917;50.014;8.352;2024-03-02T01:01:22;16.58;;;8.77;;
28760;SDS011;15917;50.014;8.352;2024-03-02T01:03:47;19.13;;;9.45;;
28760;SDS011;15917;50.014;8.352;2024-03-02T01:06:14;15.32;;;7.07;;
28760;SDS011;15917;50.014;8.352;2024-03-02T01:08:40;23.65;;;8.50;;
28760;SDS011;15917;50.014;8.352;2024-03-02T01:11:07;17.60;;;7.43;;
28760;SDS011;15917;50.014;8.352;2024-03-02T01:13:32;14.88;;;7.45;;
28760;SDS011;15917;50.014;8.352;2024-03-02T01:15:58;17.33;;;8.48;;
28760;SDS011;15917;50.014;8.352;2024-03-02T01:18:24;19.77;;;8.40;;
28760;SDS011;15917;50.014;8.352;2024-03-02T01:20:50;18.67;;;8.82;;
28760;SDS011;15917;50.014;8.352;2024-03-02T01:23:17;14.75;;;7.68;;
28760;SDS011;15917;50.014;8.352;2024-03-02T01:25:44;17.48;;;8.45;;
28760;SDS011;15917;50.014;8.352;2024-03-02T01:28:11;20.55;;;8.52;;
28760;SDS011;15917;50.014;8.352;2024-03-02T01:30:37;16.83;;;8.13;;
28760;SDS011;15917;50.014;8.352;2024-03-02T01:33:02;19.92;;;9.32;;
28760;SDS011;15917;50.014;8.352;2024-03-02T01:35:30;18.65;;;9.18;;
28760;SDS011;15917;50.014;8.352;2024-03-02T01:38:00;16.65;;;8.05;;
28760;SDS011;15917;50.014;8.352;2024-03-02T01:40:26;14.80;;;8.00;;
28760;SDS011;15917;50.014;8.352;2024-03-02T01:42:52;19.92;;;9.70;;
28760;SDS011;15917;50.014;8.352;2024-03-02T01:45:19;17.80;;;8.63;;
28760;SDS011;15917;50.014;8.352;2024-03-02T01:47:45;14.73;;;8.68;;
28760;SDS011;15917;50.014;8.352;2024-03-02T01:50:11;16.13;;;8.02;;
28760;SDS011;15917;50.014;8.352;2024-03-02T01:52:37;16.42;;;8.40;;
28760;SDS011;15917;50.014;8.352;2024-03-02T01:55:03;17.30;;;8.88;;
28760;SDS011;15917;50.014;8.352;2024-03-02T01:57:29;17.35;;;8.88;;
28760;SDS011;15917;50.014;8.352;2024-03-02T01:59:55;16.08;;;9.30;;
28760;SDS011;15917;50.014;8.352;2024-03-02T02:02:21;17.35;;;8.98;;
28760;SDS011;15917;50.014;8.352;2024-03-02T02:04:47;19.95;;;9.63;;
28760;SDS011;15917;50.014;8.352;2024-03-02T02:07:12;18.85;;;8.95;;
28760;SDS011;15917;50.014;8.352;2024-03-02T02:09:42;20.05;;;8.68;;
28760;SDS011;15917;50.014;8.352;2024-03-02T02:12:08;15.88;;;8.55;;
28760;SDS011;15917;50.014;8.352;2024-03-02T02:14:35;18.55;;;9.80;;
28760;SDS011;15917;50.014;8.352;2024-03-02T02:17:00;17.73;;;8.95;;
28760;SDS011;15917;50.014;8.352;2024-03-02T02:19:26;18.80;;;9.10;;
28760;SDS011;15917;50.014;8.352;2024-03-02T02:21:52;15.43;;;8.07;;
28760;SDS011;15917;50.014;8.352;2024-03-02T02:24:17;18.15;;;10.38;;
28760;SDS011;15917;50.014;8.352;2024-03-02T02:26:43;18.00;;;8.57;;
28760;SDS011;15917;50.014;8.352;2024-03-02T02:29:09;15.80;;;8.77;;
28760;SDS011;15917;50.014;8.352;2024-03-02T02:31:38;16.70;;;9.48;;
28760;SDS011;15917;50.014;8.352;2024-03-02T02:34:06;13.52;;;8.00;;
28760;SDS011;15917;50.014;8.352;2024-03-02T02:36:33;19.48;;;8.60;;
28760;SDS011;15917;50.014;8.352;2024-03-02T02:39:02;16.13;;;7.95;;
28760;SDS011;15917;50.014;8.352;2024-03-02T02:41:29;18.05;;;8.52;;
28760;SDS011;15917;50.014;8.352;2024-03-02T02:43:55;18.73;;;8.43;;
28760;SDS011;15917;50.014;8.352;2024-03-02T02:46:21;17.52;;;8.73;;
28760;SDS011;15917;50.014;8.352;2024-03-02T02:48:47;21.00;;;8.95;;
28760;SDS011;15917;50.014;8.352;2024-03-02T02:51:13;19.40;;;9.02;;
28760;SDS011;15917;50.014;8.352;2024-03-02T02:53:38;14.85;;;8.63;;
28760;SDS011;15917;50.014;8.352;2024-03-02T02:56:07;18.48;;;8.63;;
28760;SDS011;15917;50.014;8.352;2024-03-02T02:58:32;19.98;;;8.50;;
28760;SDS011;15917;50.014;8.352;2024-03-02T03:00:58;15.63;;;8.80;;
28760;SDS011;15917;50.014;8.352;2024-03-02T03:03:24;22.60;;;8.70;;
28760;SDS011;15917;50.014;8.352;2024-03-02T03:05:50;16.63;;;8.98;;
28760;SDS011;15917;50.014;8.352;2024-03-02T03:08:15;20.65;;;8.63;;
28760;SDS011;15917;50.014;8.352;2024-03-02T03:10:41;17.90;;;8.93;;
28760;SDS011;15917;50.014;8.352;2024-03-02T03:13:07;14.30;;;7.65;;
28760;SDS011;15917;50.014;8.352;2024-03-02T03:15:36;21.17;;;9.13;;
28760;SDS011;15917;50.014;8.352;2024-03-02T03:18:02;16.70;;;9.00;;
28760;SDS011;15917;50.014;8.352;2024-03-02T03:20:29;21.58;;;9.23;;
28760;SDS011;15917;50.014;8.352;2024-03-02T03:22:54;19.42;;;9.63;;
28760;SDS011;15917;50.014;8.352;2024-03-02T03:25:20;18.08;;;10.02;;
28760;SDS011;15917;50.014;8.352;2024-03-02T03:27:46;20.55;;;10.00;;
28760;SDS011;15917;50.014;8.352;2024-03-02T03:30:12;21.77;;;10.18;;
28760;SDS011;15917;50.014;8.352;2024-03-02T03:32:38;23.05;;;10.15;;
28760;SDS011;15917;50.014;8.352;2024-03-02T03:35:04;26.85;;;10.90;;
28760;SDS011;15917;50.014;8.352;2024-03-02T03:37:30;20.58;;;10.23;;
28760;SDS011;15917;50.014;8.352;2024-03-02T03:39:58;22.83;;;11.15;;
28760;SDS011;15917;50.014;8.352;2024-03-02T03:42:24;20.92;;;10.68;;
28760;SDS011;15917;50.014;8.352;2024-03-02T03:44:50;19.45;;;9.88;;
28760;SDS011;15917;50.014;8.352;2024-03-02T03:47:15;20.65;;;10.77;;
28760;SDS011;15917;50.014;8.352;2024-03-02T03:49:41;19.75;;;10.25;;
28760;SDS011;15917;50.014;8.352;2024-03-02T03:52:06;20.27;;;11.02;;
28760;SDS011;15917;50.014;8.352;2024-03-02T03:54:32;19.83;;;10.07;;
28760;SDS011;15917;50.014;8.352;2024-03-02T03:56:57;19.65;;;10.45;;
28760;SDS011;15917;50.014;8.352;2024-03-02T03:59:23;22.48;;;10.80;;
28760;SDS011;15917;50.014;8.352;2024-03-02T04:01:49;21.30;;;10.65;;
28760;SDS011;15917;50.014;8.352;2024-03-02T04:04:14;21.35;;;11.02;;
28760;SDS011;15917;50.014;8.352;2024-03-02T04:06:40;22.83;;;11.77;;
28760;SDS011;15917;50.014;8.352;2024-03-02T04:09:06;21.13;;;11.27;;
28760;SDS011;15917;50.014;8.352;2024-03-02T04:11:32;21.23;;;11.57;;
28760;SDS011;15917;50.014;8.352;2024-03-02T04:13:58;21.50;;;11.75;;
28760;SDS011;15917;50.014;8.352;2024-03-02T04:16:23;22.00;;;10.73;;
28760;SDS011;15917;50.014;8.352;2024-03-02T04:18:49;21.55;;;12.13;;
28760;SDS011;15917;50.014;8.352;2024-03-02T04:21:14;24.92;;;11.48;;
28760;SDS011;15917;50.014;8.352;2024-03-02T04:23:40;22.65;;;12.30;;
28760;SDS011;15917;50.014;8.352;2024-03-02T04:26:05;26.48;;;14.00;;
28760;SDS011;15917;50.014;8.352;2024-03-02T04:28:31;25.00;;;12.95;;
28760;SDS011;15917;50.014;8.352;2024-03-02T04:30:57;27.98;;;12.57;;
28760;SDS011;15917;50.014;8.352;2024-03-02T04:33:23;26.67;;;13.38;;
28760;SDS011;15917;50.014;8.352;2024-03-02T04:35:49;22.05;;;12.45;;
28760;SDS011;15917;50.014;8.352;2024-03-02T04:38:14;22.50;;;11.95;;
28760;SDS011;15917;50.014;8.352;2024-03-02T04:40:40;24.65;;;12.57;;
28760;SDS011;15917;50.014;8.352;2024-03-02T04:43:06;22.17;;;12.65;;
28760;SDS011;15917;50.014;8.352;2024-03-02T04:45:33;25.50;;;11.50;;
28760;SDS011;15917;50.014;8.352;2024-03-02T04:47:59;30.08;;;13.15;;
28760;SDS011;15917;50.014;8.352;2024-03-02T04:50:24;28.45;;;13.40;;
28760;SDS011;15917;50.014;8.352;2024-03-02T04:52:50;26.33;;;14.02;;
28760;SDS011;15917;50.014;8.352;2024-03-02T04:55:15;27.98;;;12.55;;
28760;SDS011;15917;50.014;8.352;2024-03-02T04:57:41;26.48;;;13.40;;
28760;SDS011;15917;50.014;8.352;2024-03-02T05:00:06;27.20;;;13.68;;
28760;SDS011;15917;50.014;8.352;2024-03-02T05:02:34;25.92;;;13.70;;
28760;SDS011;15917;50.014;8.352;2024-03-02T05:04:59;26.75;;;13.18;;
28760;SDS011;15917;50.014;8.352;2024-03-02T05:07:25;27.08;;;12.90;;
28760;SDS011;15917;50.014;8.352;2024-03-02T05:09:51;24.90;;;12.73;;
28760;SDS011;15917;50.014;8.352;2024-03-02T05:12:17;26.58;;;12.85;;
28760;SDS011;15917;50.014;8.352;2024-03-02T05:15:14;28.17;;;13.82;;
28760;SDS011;15917;50.014;8.352;2024-03-02T05:17:40;29.08;;;12.20;;
28760;SDS011;15917;50.014;8.352;2024-03-02T05:20:09;25.02;;;12.55;;
28760;SDS011;15917;50.014;8.352;2024-03-02T05:22:38;22.98;;;12.50;;
28760;SDS011;15917;50.014;8.352;2024-03-02T05:25:04;25.05;;;12.88;;
28760;SDS011;15917;50.014;8.352;2024-03-02T05:27:31;26.90;;;13.57;;
28760;SDS011;15917;50.014;8.352;2024-03-02T05:29:58;23.30;;;12.43;;
28760;SDS011;15917;50.014;8.352;2024-03-02T05:32:26;22.10;;;12.07;;
28760;SDS011;15917;50.014;8.352;2024-03-02T05:34:52;23.85;;;11.98;;
28760;SDS011;15917;50.014;8.352;2024-03-02T05:37:18;24.05;;;12.50;;
28760;SDS011;15917;50.014;8.352;2024-03-02T05:39:43;25.25;;;13.15;;
28760;SDS011;15917;50.014;8.352;2024-03-02T05:42:09;27.33;;;11.70;;
28760;SDS011;15917;50.014;8.352;2024-03-02T05:44:38;30.00;;;11.82;;
28760;SDS011;15917;50.014;8.352;2024-03-02T05:47:04;27.90;;;12.73;;
28760;SDS011;15917;50.014;8.352;2024-03-02T05:49:30;25.02;;;11.95;;
28760;SDS011;15917;50.014;8.352;2024-03-02T05:51:56;24.17;;;12.02;;
28760;SDS011;15917;50.014;8.352;2024-03-02T05:54:21;21.35;;;12.40;;
28760;SDS011;15917;50.014;8.352;2024-03-02T05:56:47;33.92;;;12.25;;
28760;SDS011;15917;50.014;8.352;2024-03-02T05:59:12;25.65;;;12.85;;
28760;SDS011;15917;50.014;8.352;2024-03-02T06:01:41;24.60;;;11.60;;
28760;SDS011;15917;50.014;8.352;2024-03-02T06:04:08;24.13;;;11.07;;
28760;SDS011;15917;50.014;8.352;2024-03-02T06:06:34;28.38;;;13.18;;
28760;SDS011;15917;50.014;8.352;2024-03-02T06:09:03;24.40;;;13.18;;
28760;SDS011;15917;50.014;8.352;2024-03-02T06:11:49;22.65;;;11.85;;
28760;SDS011;15917;50.014;8.352;2024-03-02T06:14:15;27.35;;;12.38;;
28760;SDS011;15917;50.014;8.352;2024-03-02T06:16:40;22.55;;;11.57;;
28760;SDS011;15917;50.014;8.352;2024-03-02T06:19:06;25.50;;;11.98;;
28760;SDS011;15917;50.014;8.352;2024-03-02T06:21:32;27.88;;;12.90;;
28760;SDS011;15917;50.014;8.352;2024-03-02T06:23:57;27.83;;;13.52;;
28760;SDS011;15917;50.014;8.352;2024-03-02T06:26:23;30.85;;;14.48;;
28760;SDS011;15917;50.014;8.352;2024-03-02T06:28:49;28.88;;;14.18;;
28760;SDS011;15917;50.014;8.352;2024-03-02T06:31:14;34.00;;;15.57;;
28760;SDS011;15917;50.014;8.352;2024-03-02T06:33:40;33.20;;;15.30;;
28760;SDS011;15917;50.014;8.352;2024-03-02T06:36:06;39.55;;;17.50;;
28760;SDS011;15917;50.014;8.352;2024-03-02T06:38:36;35.30;;;16.33;;
28760;SDS011;15917;50.014;8.352;2024-03-02T06:41:02;36.15;;;17.40;;
28760;SDS011;15917;50.014;8.352;2024-03-02T06:43:28;32.15;;;16.05;;
28760;SDS011;15917;50.014;8.352;2024-03-02T06:45:53;32.42;;;17.23;;
28760;SDS011;15917;50.014;8.352;2024-03-02T06:48:19;35.58;;;16.73;;
28760;SDS011;15917;50.014;8.352;2024-03-02T06:50:48;35.95;;;15.90;;
28760;SDS011;15917;50.014;8.352;2024-03-02T06:53:14;32.55;;;16.40;;
28760;SDS011;15917;50.014;8.352;2024-03-02T06:55:45;35.55;;;16.10;;
28760;SDS011;15917;50.014;8.352;2024-03-02T06:58:11;35.95;;;16.20;;
28760;SDS011;15917;50.014;8.352;2024-03-02T07:00:41;32.97;;;16.45;;
28760;SDS011;15917;50.014;8.352;2024-03-02T07:03:07;31.60;;;16.08;;
28760;SDS011;15917;50.014;8.352;2024-03-02T07:05:32;34.60;;;17.15;;
28760;SDS011;15917;50.014;8.352;2024-03-02T07:07:58;34.53;;;17.42;;
28760;SDS011;15917;50.014;8.352;2024-03-02T07:10:24;38.30;;;18.13;;
28760;SDS011;15917;50.014;8.352;2024-03-02T07:12:50;33.58;;;17.25;;
28760;SDS011;15917;50.014;8.352;2024-03-02T07:15:15;35.75;;;17.25;;
28760;SDS011;15917;50.014;8.352;2024-03-02T07:17:55;32.28;;;16.45;;
28760;SDS011;15917;50.014;8.352;2024-03-02T07:20:20;35.90;;;16.70;;
28760;SDS011;15917;50.014;8.352;2024-03-02T07:22:46;34.33;;;16.42;;
28760;SDS011;15917;50.014;8.352;2024-03-02T07:25:12;36.58;;;18.25;;
28760;SDS011;15917;50.014;8.352;2024-03-02T07:27:38;36.70;;;18.90;;
28760;SDS011;15917;50.014;8.352;2024-03-02T07:30:04;39.85;;;18.95;;
28760;SDS011;15917;50.014;8.352;2024-03-02T07:32:31;40.78;;;18.52;;
28760;SDS011;15917;50.014;8.352;2024-03-02T07:34:56;34.40;;;17.55;;
28760;SDS011;15917;50.014;8.352;2024-03-02T07:37:22;37.42;;;18.58;;
28760;SDS011;15917;50.014;8.352;2024-03-02T07:39:48;40.90;;;18.77;;
28760;SDS011;15917;50.014;8.352;2024-03-02T07:42:14;34.17;;;18.08;;
28760;SDS011;15917;50.014;8.352;2024-03-02T07:44:41;28.35;;;14.98;;
28760;SDS011;15917;50.014;8.352;2024-03-02T07:47:07;41.25;;;17.40;;
28760;SDS011;15917;50.014;8.352;2024-03-02T07:49:33;33.28;;;15.80;;
28760;SDS011;15917;50.014;8.352;2024-03-02T07:51:58;33.72;;;16.58;;
28760;SDS011;15917;50.014;8.352;2024-03-02T07:54:24;28.90;;;15.65;;
28760;SDS011;15917;50.014;8.352;2024-03-02T07:56:49;35.80;;;16.67;;
28760;SDS011;15917;50.014;8.352;2024-03-02T07:59:15;34.97;;;18.30;;
28760;SDS011;15917;50.014;8.352;2024-03-02T08:01:40;31.02;;;16.40;;
28760;SDS011;15917;50.014;8.352;2024-03-02T08:04:06;27.98;;;15.07;;
28760;SDS011;15917;50.014;8.352;2024-03-02T08:06:32;38.28;;;16.00;;
28760;SDS011;15917;50.014;8.352;2024-03-02T08:08:58;32.60;;;15.32;;
28760;SDS011;15917;50.014;8.352;2024-03-02T08:11:25;32.00;;;14.45;;
28760;SDS011;15917;50.014;8.352;2024-03-02T08:13:52;28.63;;;15.60;;
28760;SDS011;15917;50.014;8.352;2024-03-02T08:16:19;38.28;;;17.35;;
28760;SDS011;15917;50.014;8.352;2024-03-02T08:18:47;37.42;;;15.95;;
28760;SDS011;15917;50.014;8.352;2024-03-02T08:21:13;30.55;;;16.35;;
28760;SDS011;15917;50.014;8.352;2024-03-02T08:23:40;35.40;;;17.40;;
28760;SDS011;15917;50.014;8.352;2024-03-02T08:26:07;29.35;;;16.30;;
28760;SDS011;15917;50.014;8.352;2024-03-02T08:28:33;28.90;;;16.05;;
28760;SDS011;15917;50.014;8.352;2024-03-02T08:30:59;39.53;;;17.58;;
28760;SDS011;15917;50.014;8.352;2024-03-02T08:33:25;34.25;;;17.30;;
28760;SDS011;15917;50.014;8.352;2024-03-02T08:35:51;39.88;;;17.85;;
28760;SDS011;15917;50.014;8.352;2024-03-02T08:38:16;36.38;;;16.95;;
28760;SDS011;15917;50.014;8.352;2024-03-02T08:40:42;27.98;;;15.18;;
28760;SDS011;15917;50.014;8.352;2024-03-02T08:43:08;29.25;;;15.32;;
28760;SDS011;15917;50.014;8.352;2024-03-02T08:45:34;37.38;;;15.80;;
28760;SDS011;15917;50.014;8.352;2024-03-02T08:48:00;29.83;;;15.27;;
28760;SDS011;15917;50.014;8.352;2024-03-02T08:50:25;27.20;;;14.43;;
28760;SDS011;15917;50.014;8.352;2024-03-02T08:52:51;25.17;;;14.90;;
28760;SDS011;15917;50.014;8.352;2024-03-02T08:55:17;28.00;;;13.35;;
28760;SDS011;15917;50.014;8.352;2024-03-02T08:57:42;25.23;;;14.45;;
28760;SDS011;15917;50.014;8.352;2024-03-02T09:00:08;29.50;;;15.05;;
28760;SDS011;15917;50.014;8.352;2024-03-02T09:02:34;34.10;;;16.00;;
28760;SDS011;15917;50.014;8.352;2024-03-02T09:05:00;37.05;;;14.82;;
28760;SDS011;15917;50.014;8.352;2024-03-02T09:07:26;35.38;;;14.93;;
28760;SDS011;15917;50.014;8.352;2024-03-02T09:09:52;31.20;;;15.10;;
28760;SDS011;15917;50.014;8.352;2024-03-02T09:12:18;33.38;;;14.98;;
28760;SDS011;15917;50.014;8.352;2024-03-02T09:14:44;39.55;;;15.40;;
28760;SDS011;15917;50.014;8.352;2024-03-02T09:17:11;25.30;;;13.70;;
28760;SDS011;15917;50.014;8.352;2024-03-02T09:19:37;29.45;;;14.40;;
28760;SDS011;15917;50.014;8.352;2024-03-02T09:22:04;34.42;;;14.48;;
28760;SDS011;15917;50.014;8.352;2024-03-02T09:24:30;30.48;;;14.10;;
28760;SDS011;15917;50.014;8.352;2024-03-02T09:26:58;32.63;;;15.85;;
28760;SDS011;15917;50.014;8.352;2024-03-02T09:29:24;34.08;;;16.48;;
28760;SDS011;15917;50.014;8.352;2024-03-02T09:31:49;35.80;;;14.70;;
28760;SDS011;15917;50.014;8.352;2024-03-02T09:34:16;29.33;;;13.55;;
28760;SDS011;15917;50.014;8.352;2024-03-02T09:36:42;27.50;;;13.45;;
28760;SDS011;15917;50.014;8.352;2024-03-02T09:39:07;27.33;;;14.80;;
28760;SDS011;15917;50.014;8.352;2024-03-02T09:41:34;27.80;;;13.32;;
28760;SDS011;15917;50.014;8.352;2024-03-02T09:44:04;30.23;;;15.00;;
28760;SDS011;15917;50.014;8.352;2024-03-02T09:46:30;23.27;;;13.05;;
28760;SDS011;15917;50.014;8.352;2024-03-02T09:48:56;34.75;;;13.75;;
28760;SDS011;15917;50.014;8.352;2024-03-02T09:51:22;27.30;;;13.73;;
28760;SDS011;15917;50.014;8.352;2024-03-02T09:53:48;27.67;;;13.95;;
28760;SDS011;15917;50.014;8.352;2024-03-02T09:56:14;27.83;;;14.40;;
28760;SDS011;15917;50.014;8.352;2024-03-02T09:58:41;30.08;;;14.35;;
28760;SDS011;15917;50.014;8.352;2024-03-02T10:01:07;68.95;;;17.50;;
28760;SDS011;15917;50.014;8.352;2024-03-02T10:03:35;33.15;;;14.43;;
28760;SDS011;15917;50.014;8.352;2024-03-02T10:08:47;26.98;;;12.55;;
28760;SDS011;15917;50.014;8.352;2024-03-02T10:14:13;28.02;;;13.15;;
28760;SDS011;15917;50.014;8.352;2024-03-02T10:16:39;25.00;;;13.15;;
28760;SDS011;15917;50.014;8.352;2024-03-02T10:19:19;28.63;;;13.52;;
28760;SDS011;15917;50.014;8.352;2024-03-02T10:21:47;22.80;;;12.43;;
28760;SDS011;15917;50.014;8.352;2024-03-02T10:24:14;28.60;;;12.93;;
28760;SDS011;15917;50.014;8.352;2024-03-02T10:26:40;23.83;;;12.32;;
28760;SDS011;15917;50.014;8.352;2024-03-02T10:29:07;27.55;;;12.93;;
28760;SDS011;15917;50.014;8.352;2024-03-02T10:31:35;28.92;;;12.57;;
28760;SDS011;15917;50.014;8.352;2024-03-02T10:34:02;27.98;;;13.35;;
28760;SDS011;15917;50.014;8.352;2024-03-02T10:36:28;20.95;;;11.73;;
28760;SDS011;15917;50.014;8.352;2024-03-02T10:38:55;23.10;;;13.13;;
28760;SDS011;15917;50.014;8.352;2024-03-02T10:41:24;28.00;;;14.10;;
28760;SDS011;15917;50.014;8.352;2024-03-02T10:46:26;28.23;;;11.90;;
28760;SDS011;15917;50.014;8.352;2024-03-02T10:48:54;30.70;;;12.00;;
28760;SDS011;15917;50.014;8.352;2024-03-02T10:51:21;35.47;;;11.55;;
28760;SDS011;15917;50.014;8.352;2024-03-02T10:53:47;21.55;;;10.63;;
28760;SDS011;15917;50.014;8.352;2024-03-02T10:56:13;22.70;;;12.55;;
28760;SDS011;15917;50.014;8.352;2024-03-02T10:58:47;30.65;;;13.00;;
28760;SDS011;15917;50.014;8.352;2024-03-02T11:01:20;32.05;;;13.00;;
28760;SDS011;15917;50.014;8.352;2024-03-02T11:03:46;27.15;;;11.55;;
28760;SDS011;15917;50.014;8.352;2024-03-02T11:06:12;24.17;;;11.30;;
28760;SDS011;15917;50.014;8.352;2024-03-02T11:08:38;23.70;;;11.63;;
28760;SDS011;15917;50.014;8.352;2024-03-02T11:11:07;22.35;;;11.70;;
28760;SDS011;15917;50.014;8.352;2024-03-02T11:13:37;16.30;;;10.07;;
28760;SDS011;15917;50.014;8.352;2024-03-02T11:16:12;19.27;;;9.77;;
28760;SDS011;15917;50.014;8.352;2024-03-02T11:18:51;25.77;;;9.98;;
28760;SDS011;15917;50.014;8.352;2024-03-02T11:21:17;26.83;;;10.73;;
28760;SDS011;15917;50.014;8.352;2024-03-02T11:23:51;21.23;;;11.77;;
28760;SDS011;15917;50.014;8.352;2024-03-02T11:26:20;22.92;;;10.98;;
28760;SDS011;15917;50.014;8.352;2024-03-02T11:28:48;36.15;;;11.13;;
28760;SDS011;15917;50.014;8.352;2024-03-02T11:31:14;26.50;;;11.88;;
28760;SDS011;15917;50.014;8.352;2024-03-02T11:33:39;22.55;;;11.45;;
28760;SDS011;15917;50.014;8.352;2024-03-02T11:36:08;22.20;;;11.65;;
28760;SDS011;15917;50.014;8.352;2024-03-02T11:38:34;26.30;;;12.27;;
28760;SDS011;15917;50.014;8.352;2024-03-02T11:41:07;30.33;;;11.80;;
28760;SDS011;15917;50.014;8.352;2024-03-02T11:43:39;22.23;;;10.40;;
28760;SDS011;15917;50.014;8.352;2024-03-02T11:46:07;24.17;;;10.82;;
28760;SDS011;15917;50.014;8.352;2024-03-02T11:48:33;33.60;;;11.45;;
28760;SDS011;15917;50.014;8.352;2024-03-02T11:51:01;23.92;;;10.40;;
28760;SDS011;15917;50.014;8.352;2024-03-02T11:53:27;23.58;;;11.70;;
28760;SDS011;15917;50.014;8.352;2024-03-02T11:55:59;20.70;;;10.20;;
28760;SDS011;15917;50.014;8.352;2024-03-02T11:58:27;28.40;;;9.98;;
28760;SDS011;15917;50.014;8.352;2024-03-02T12:00:53;25.15;;;9.52;;
28760;SDS011;15917;50.014;8.352;2024-03-02T12:03:21;23.10;;;9.15;;
28760;SDS011;15917;50.014;8.352;2024-03-02T12:05:49;41.83;;;10.80;;
28760;SDS011;15917;50.014;8.352;2024-03-02T12:08:15;23.70;;;9.07;;
28760;SDS011;15917;50.014;8.352;2024-03-02T12:10:42;31.50;;;9.18;;
28760;SDS011;15917;50.014;8.352;2024-03-02T12:13:09;18.98;;;8.48;;
28760;SDS011;15917;50.014;8.352;2024-03-02T12:15:37;20.08;;;8.27;;
28760;SDS011;15917;50.014;8.352;2024-03-02T12:18:03;13.98;;;7.47;;
28760;SDS011;15917;50.014;8.352;2024-03-02T12:20:30;20.80;;;7.75;;
28760;SDS011;15917;50.014;8.352;2024-03-02T12:22:59;17.70;;;7.03;;
28760;SDS011;15917;50.014;8.352;2024-03-02T12:25:27;26.48;;;7.50;;
28760;SDS011;15917;50.014;8.352;2024-03-02T12:27:56;21.63;;;7.85;;
28760;SDS011;15917;50.014;8.352;2024-03-02T12:30:23;18.33;;;8.02;;
28760;SDS011;15917;50.014;8.352;2024-03-02T12:32:49;16.00;;;6.55;;
28760;SDS011;15917;50.014;8.352;2024-03-02T12:35:15;15.10;;;6.57;;
28760;SDS011;15917;50.014;8.352;2024-03-02T12:37:42;12.73;;;6.05;;
28760;SDS011;15917;50.014;8.352;2024-03-02T12:40:12;18.67;;;6.43;;
28760;SDS011;15917;50.014;8.352;2024-03-02T12:42:39;10.25;;;5.32;;
28760;SDS011;15917;50.014;8.352;2024-03-02T12:45:05;20.10;;;6.28;;
28760;SDS011;15917;50.014;8.352;2024-03-02T12:47:32;12.60;;;6.25;;
28760;SDS011;15917;50.014;8.352;2024-03-02T12:49:59;14.53;;;6.23;;
28760;SDS011;15917;50.014;8.352;2024-03-02T12:52:25;14.55;;;5.72;;
28760;SDS011;15917;50.014;8.352;2024-03-02T12:54:51;9.70;;;5.43;;
28760;SDS011;15917;50.014;8.352;2024-03-02T12:57:20;11.98;;;6.60;;
28760;SDS011;15917;50.014;8.352;2024-03-02T12:59:46;14.25;;;6.28;;
28760;SDS011;15917;50.014;8.352;2024-03-02T13:02:19;16.75;;;6.72;;
28760;SDS011;15917;50.014;8.352;2024-03-02T13:04:52;12.35;;;6.68;;
28760;SDS011;15917;50.014;8.352;2024-03-02T13:07:22;9.75;;;6.32;;
28760;SDS011;15917;50.014;8.352;2024-03-02T13:09:52;22.45;;;6.15;;
28760;SDS011;15917;50.014;8.352;2024-03-02T13:12:20;12.10;;;5.93;;
28760;SDS011;15917;50.014;8.352;2024-03-02T13:14:49;15.02;;;6.28;;
28760;SDS011;15917;50.014;8.352;2024-03-02T13:17:20;24.70;;;6.05;;
28760;SDS011;15917;50.014;8.352;2024-03-02T13:19:55;13.75;;;5.22;;
28760;SDS011;15917;50.014;8.352;2024-03-02T13:22:22;11.05;;;4.22;;
28760;SDS011;15917;50.014;8.352;2024-03-02T13:24:48;8.60;;;4.22;;
28760;SDS011;15917;50.014;8.352;2024-03-02T13:27:17;8.50;;;4.25;;
28760;SDS011;15917;50.014;8.352;2024-03-02T13:29:49;6.90;;;3.33;;
28760;SDS011;15917;50.014;8.352;2024-03-02T13:32:15;11.38;;;3.38;;
28760;SDS011;15917;50.014;8.352;2024-03-02T13:34:41;9.93;;;3.53;;
28760;SDS011;15917;50.014;8.352;2024-03-02T13:37:07;7.70;;;3.78;;
28760;SDS011;15917;50.014;8.352;2024-03-02T13:39:33;6.53;;;3.22;;
28760;SDS011;15917;50.014;8.352;2024-03-02T13:42:05;8.45;;;2.80;;
28760;SDS011;15917;50.014;8.352;2024-03-02T13:44:35;4.35;;;2.95;;
28760;SDS011;15917;50.014;8.352;2024-03-02T13:47:01;6.53;;;2.63;;
28760;SDS011;15917;50.014;8.352;2024-03-02T13:49:26;7.75;;;3.00;;
28760;SDS011;15917;50.014;8.352;2024-03-02T13:52:05;6.70;;;3.10;;
28760;SDS011;15917;50.014;8.352;2024-03-02T13:54:41;7.38;;;3.45;;
28760;SDS011;15917;50.014;8.352;2024-03-02T13:57:08;6.57;;;3.17;;
28760;SDS011;15917;50.014;8.352;2024-03-02T13:59:34;14.60;;;5.53;;
28760;SDS011;15917;50.014;8.352;2024-03-02T14:02:04;9.65;;;5.47;;
28760;SDS011;15917;50.014;8.352;2024-03-02T14:04:31;18.70;;;5.25;;
28760;SDS011;15917;50.014;8.352;2024-03-02T14:06:58;23.45;;;6.13;;
28760;SDS011;15917;50.014;8.352;2024-03-02T14:09:24;10.45;;;4.82;;
28760;SDS011;15917;50.014;8.352;2024-03-02T14:14:18;7.03;;;3.60;;
28760;SDS011;15917;50.014;8.352;2024-03-02T14:16:46;5.07;;;3.00;;
28760;SDS011;15917;50.014;8.352;2024-03-02T14:19:12;8.75;;;3.55;;
28760;SDS011;15917;50.014;8.352;2024-03-02T14:21:38;15.00;;;4.00;;
28760;SDS011;15917;50.014;8.352;2024-03-02T14:24:04;7.60;;;3.38;;
28760;SDS011;15917;50.014;8.352;2024-03-02T14:26:32;7.80;;;3.88;;
28760;SDS011;15917;50.014;8.352;2024-03-02T14:28:58;8.35;;;4.38;;
28760;SDS011;15917;50.014;8.352;2024-03-02T14:31:26;11.95;;;6.13;;
28760;SDS011;15917;50.014;8.352;2024-03-02T14:33:52;25.25;;;11.75;;
28760;SDS011;15917;50.014;8.352;2024-03-02T14:36:18;16.38;;;6.60;;
28760;SDS011;15917;50.014;8.352;2024-03-02T14:38:44;12.13;;;5.60;;
28760;SDS011;15917;50.014;8.352;2024-03-02T14:41:09;9.65;;;5.53;;